Time;durP1;ratioP1;P1;durP2;ratioP2;P2;SDS_P1;SDS_P2;PMS_P1;PMS_P2;Temp;Humidity;BMP_temperature;BMP_pressure;BME280_temperature;BME280_humidity;BME280_pressure;Samples;Min_cycle;Max_cycle;Signal;HPM_P1;HPM_P2
2023/12/03 00:00:45;;;;;;;40.60;20.87;;;1.90;99.90;;;;;;5056455;28;20575;-64
2023/12/03 00:03:14;;;;;;;32.63;19.37;;;2.00;99.90;;;;;;5056575;28;20469;-64
2023/12/03 00:05:41;;;;;;;37.43;20.30;;;2.00;99.90;;;;;;5056513;28;20477;-64
2023/12/03 00:08:08;;;;;;;37.17;20.10;;;2.00;99.90;;;;;;5056588;28;20472;-65
2023/12/03 00:10:34;;;;;;;35.23;18.67;;;2.00;99.90;;;;;;5056373;28;20870;-65
2023/12/03 00:13:01;;;;;;;30.73;17.40;;;1.90;99.90;;;;;;5056560;28;20468;-65
2023/12/03 00:15:28;;;;;;;30.50;17.37;;;1.90;99.90;;;;;;5056213;28;20829;-64
2023/12/03 00:17:54;;;;;;;39.23;20.30;;;1.90;99.90;;;;;;5056432;28;20456;-64
2023/12/03 00:20:22;;;;;;;35.87;20.13;;;1.90;99.90;;;;;;5056179;28;20465;-64
2023/12/03 00:22:51;;;;;;;37.30;19.33;;;1.90;99.90;;;;;;5056213;28;20448;-65
2023/12/03 00:25:18;;;;;;;33.97;18.47;;;1.90;99.90;;;;;;5056105;28;20813;-65
2023/12/03 00:27:44;;;;;;;33.67;18.43;;;1.90;99.90;;;;;;5056095;28;20524;-64
2023/12/03 00:30:13;;;;;;;36.83;18.40;;;1.90;99.90;;;;;;5056075;28;20454;-64
2023/12/03 00:32:40;;;;;;;37.30;19.83;;;1.90;99.90;;;;;;5056101;28;20445;-64
2023/12/03 00:35:07;;;;;;;37.37;19.17;;;1.90;99.90;;;;;;5056057;28;20442;-64
2023/12/03 00:37:36;;;;;;;40.17;20.77;;;2.00;99.90;;;;;;5055876;28;20445;-64
2023/12/03 00:40:02;;;;;;;32.80;20.07;;;2.00;99.90;;;;;;5055845;28;20466;-64
2023/12/03 00:42:29;;;;;;;38.30;20.70;;;2.00;99.90;;;;;;5055693;28;20449;-64
2023/12/03 00:44:56;;;;;;;31.40;17.43;;;1.90;99.90;;;;;;5055874;28;20442;-65
2023/12/03 00:47:22;;;;;;;33.30;18.93;;;2.00;99.90;;;;;;5055819;28;20484;-64
2023/12/03 00:49:49;;;;;;;34.30;20.80;;;1.90;99.90;;;;;;5055666;28;20461;-65
2023/12/03 00:52:16;;;;;;;35.60;18.90;;;2.00;99.90;;;;;;5055563;28;20448;-65
2023/12/03 00:54:44;;;;;;;33.23;18.63;;;2.00;99.90;;;;;;5055803;28;20446;-65
2023/12/03 00:57:10;;;;;;;40.07;20.37;;;2.10;99.90;;;;;;5055541;28;20438;-65
2023/12/03 00:59:37;;;;;;;30.73;18.67;;;2.10;99.90;;;;;;5054472;28;20788;-65
2023/12/03 01:02:04;;;;;;;32.40;18.07;;;2.10;99.90;;;;;;5054845;28;20869;-64
2023/12/03 01:04:31;;;;;;;33.57;18.03;;;2.10;99.90;;;;;;5054973;28;20963;-65
2023/12/03 01:06:58;;;;;;;34.10;19.30;;;2.10;99.90;;;;;;5054862;28;20836;-64
2023/12/03 01:09:26;;;;;;;33.70;19.33;;;2.10;99.90;;;;;;5055420;28;20473;-65
2023/12/03 01:11:56;;;;;;;30.17;16.97;;;2.10;99.90;;;;;;5054953;28;20958;-65
2023/12/03 01:14:23;;;;;;;29.63;17.33;;;2.10;99.90;;;;;;5054810;28;20951;-65
2023/12/03 01:16:49;;;;;;;30.30;16.77;;;2.00;99.90;;;;;;5055160;28;20449;-64
2023/12/03 01:19:16;;;;;;;30.60;19.00;;;1.90;99.90;;;;;;5055404;28;20438;-65
2023/12/03 01:21:43;;;;;;;30.23;17.53;;;1.90;99.90;;;;;;5055313;28;20445;-65
2023/12/03 01:24:09;;;;;;;28.83;17.57;;;2.00;99.90;;;;;;5054897;28;20931;-64
2023/12/03 01:26:36;;;;;;;34.17;17.53;;;2.00;99.90;;;;;;5054929;28;20894;-65
2023/12/03 01:29:04;;;;;;;25.87;15.93;;;2.00;99.90;;;;;;5055261;28;20441;-65
2023/12/03 01:31:31;;;;;;;33.70;17.37;;;2.00;99.90;;;;;;5054925;28;20441;-65
2023/12/03 01:33:58;;;;;;;31.77;19.27;;;2.10;99.90;;;;;;5055107;28;20487;-64
2023/12/03 01:36:25;;;;;;;27.10;16.30;;;2.00;99.90;;;;;;5054974;28;20442;-65
2023/12/03 01:38:51;;;;;;;29.30;16.27;;;1.90;99.90;;;;;;5054634;28;20452;-65
2023/12/03 01:41:18;;;;;;;32.33;17.67;;;2.00;99.90;;;;;;5054831;28;20472;-65
2023/12/03 01:43:49;;;;;;;33.50;16.40;;;2.00;99.90;;;;;;5054992;28;20445;-65
2023/12/03 01:46:17;;;;;;;28.23;17.10;;;2.00;99.90;;;;;;5054809;28;20540;-65
2023/12/03 01:48:44;;;;;;;31.17;18.10;;;2.10;99.90;;;;;;5054897;28;20450;-65
2023/12/03 01:51:11;;;;;;;23.77;15.67;;;2.10;99.90;;;;;;5055031;28;20473;-65
2023/12/03 01:53:39;;;;;;;32.47;18.60;;;2.20;99.90;;;;;;5055228;28;20446;-65
2023/12/03 01:56:07;;;;;;;36.20;19.63;;;2.30;99.90;;;;;;5055292;28;20448;-65
2023/12/03 01:58:34;;;;;;;29.90;16.97;;;2.30;99.90;;;;;;5054747;28;20445;-65
2023/12/03 02:01:01;;;;;;;28.37;17.07;;;2.40;99.90;;;;;;5055337;28;20469;-65
2023/12/03 02:03:29;;;;;;;30.63;18.57;;;2.40;99.90;;;;;;5056307;28;20822;-65
2023/12/03 02:06:04;;;;;;;29.90;18.50;;;2.30;99.90;;;;;;5056081;28;20450;-65
2023/12/03 02:08:31;;;;;;;30.73;17.37;;;2.40;99.90;;;;;;5055753;28;20495;-65
2023/12/03 02:10:58;;;;;;;34.93;18.57;;;2.40;99.90;;;;;;5055700;28;20541;-65
2023/12/03 02:13:27;;;;;;;29.53;17.87;;;2.30;99.90;;;;;;5057042;28;20442;-65
2023/12/03 02:15:54;;;;;;;32.80;17.77;;;2.40;99.90;;;;;;5055555;28;20803;-65
2023/12/03 02:18:21;;;;;;;29.40;17.43;;;2.40;99.90;;;;;;5054142;28;20480;-65
2023/12/03 02:20:49;;;;;;;33.53;17.73;;;2.40;99.90;;;;;;5053635;28;20458;-65
2023/12/03 02:23:16;;;;;;;33.97;18.97;;;2.50;99.90;;;;;;5053583;28;20449;-64
2023/12/03 02:25:43;;;;;;;24.70;15.77;;;2.50;99.90;;;;;;5053760;28;20446;-65
2023/12/03 02:28:10;;;;;;;28.27;16.93;;;2.50;99.90;;;;;;5053704;28;20481;-65
2023/12/03 02:30:36;;;;;;;34.70;17.50;;;2.50;99.90;;;;;;5053722;28;20469;-65
2023/12/03 02:33:05;;;;;;;25.60;15.30;;;2.50;99.90;;;;;;5053630;28;20445;-65
2023/12/03 02:35:31;;;;;;;29.83;16.93;;;2.40;99.90;;;;;;5054047;28;20445;-65
2023/12/03 02:37:58;;;;;;;26.70;15.80;;;2.50;99.90;;;;;;5054232;28;20442;-65
2023/12/03 02:40:26;;;;;;;29.60;17.30;;;2.40;99.90;;;;;;5053983;28;20464;-65
2023/12/03 02:42:53;;;;;;;26.60;14.40;;;2.50;99.90;;;;;;5054429;28;20966;-65
2023/12/03 02:45:20;;;;;;;29.03;15.27;;;2.50;99.90;;;;;;5054496;28;20861;-65
2023/12/03 02:47:46;;;;;;;29.20;15.20;;;2.40;99.90;;;;;;5054088;28;20484;-65
2023/12/03 02:50:13;;;;;;;28.07;16.50;;;2.40;99.90;;;;;;5053695;28;20465;-64
2023/12/03 02:52:40;;;;;;;29.40;15.90;;;2.40;99.90;;;;;;5053652;28;20449;-64
2023/12/03 02:55:08;;;;;;;26.17;16.20;;;2.40;99.90;;;;;;5053482;28;21011;-64
2023/12/03 02:57:36;;;;;;;27.30;16.07;;;2.40;99.90;;;;;;5053804;28;20437;-65
2023/12/03 03:00:03;;;;;;;24.30;15.30;;;2.40;99.90;;;;;;5052998;28;20998;-65
2023/12/03 03:02:29;;;;;;;27.23;14.93;;;2.30;99.90;;;;;;5053482;28;20445;-65
2023/12/03 03:04:56;;;;;;;25.37;13.63;;;2.30;99.90;;;;;;5053562;28;20448;-65
2023/12/03 03:07:23;;;;;;;25.07;15.07;;;2.30;99.90;;;;;;5053315;28;20517;-65
2023/12/03 03:09:49;;;;;;;22.73;13.80;;;2.30;99.90;;;;;;5053454;28;20461;-65
2023/12/03 03:12:16;;;;;;;27.10;15.97;;;2.40;99.90;;;;;;5053289;28;20452;-65
2023/12/03 03:14:44;;;;;;;21.83;13.43;;;2.40;99.90;;;;;;5053139;28;20967;-65
2023/12/03 03:17:11;;;;;;;26.27;15.33;;;2.40;99.90;;;;;;5053030;28;20962;-64
2023/12/03 03:19:37;;;;;;;23.60;13.83;;;2.40;99.90;;;;;;5052992;28;20469;-64
2023/12/03 03:22:04;;;;;;;27.30;14.13;;;2.50;99.90;;;;;;5053120;28;20442;-64
2023/12/03 03:24:31;;;;;;;24.43;13.70;;;2.40;99.90;;;;;;5053348;28;20449;-64
2023/12/03 03:26:58;;;;;;;32.33;15.53;;;2.40;99.90;;;;;;5054317;28;20484;-65
2023/12/03 03:29:25;;;;;;;25.27;15.30;;;2.50;99.90;;;;;;5057138;28;20465;-65
2023/12/03 03:31:53;;;;;;;25.37;14.87;;;2.40;99.90;;;;;;5057208;28;20839;-65
2023/12/03 03:34:20;;;;;;;21.67;13.43;;;2.50;99.90;;;;;;5057272;28;20464;-65
2023/12/03 03:36:47;;;;;;;24.90;15.13;;;2.50;99.90;;;;;;5056934;28;20446;-65
2023/12/03 03:39:13;;;;;;;27.50;14.33;;;2.60;99.90;;;;;;5056988;28;20448;-65
2023/12/03 03:41:40;;;;;;;25.60;14.33;;;2.60;99.90;;;;;;5057051;28;20441;-65
2023/12/03 03:44:07;;;;;;;21.10;14.30;;;2.60;99.90;;;;;;5057376;28;20437;-65
2023/12/03 03:46:33;;;;;;;24.40;14.77;;;2.60;99.90;;;;;;5057046;28;20449;-65
2023/12/03 03:49:01;;;;;;;24.50;13.30;;;2.60;99.90;;;;;;5056828;28;20484;-65
2023/12/03 03:51:28;;;;;;;22.90;13.33;;;2.70;99.90;;;;;;5056760;28;20445;-65
2023/12/03 03:53:55;;;;;;;23.33;13.60;;;2.70;99.90;;;;;;5056457;28;20437;-65
2023/12/03 03:56:22;;;;;;;26.07;16.10;;;2.70;99.90;;;;;;5056625;28;20449;-65
2023/12/03 03:58:49;;;;;;;26.97;13.90;;;2.80;99.90;;;;;;5056682;28;20448;-65
2023/12/03 04:01:16;;;;;;;24.30;13.43;;;2.80;99.90;;;;;;5056264;28;20898;-65
2023/12/03 04:03:43;;;;;;;23.77;14.37;;;2.70;99.90;;;;;;5056619;28;20468;-65
2023/12/03 04:06:12;;;;;;;25.33;14.67;;;2.80;99.90;;;;;;5056544;28;20464;-65
2023/12/03 04:08:39;;;;;;;25.73;14.10;;;2.80;99.90;;;;;;5056493;28;20481;-65
2023/12/03 04:11:07;;;;;;;25.90;13.13;;;2.80;99.90;;;;;;5056428;28;20461;-65
2023/12/03 04:13:33;;;;;;;24.63;13.40;;;2.80;99.90;;;;;;5056066;28;20449;-65
2023/12/03 04:16:00;;;;;;;25.13;14.73;;;2.80;99.90;;;;;;5056483;28;20428;-65
2023/12/03 04:18:27;;;;;;;18.30;12.37;;;2.80;99.90;;;;;;5056511;28;20437;-65
2023/12/03 04:20:54;;;;;;;23.83;13.47;;;2.70;99.90;;;;;;5056140;28;20463;-65
2023/12/03 04:23:22;;;;;;;18.93;12.83;;;2.70;99.90;;;;;;5056207;28;20467;-65
2023/12/03 04:25:49;;;;;;;23.13;12.27;;;2.70;99.90;;;;;;5056160;28;20477;-65
2023/12/03 04:28:16;;;;;;;20.70;13.90;;;2.70;99.90;;;;;;5055710;28;20991;-65
2023/12/03 04:30:42;;;;;;;20.47;13.50;;;2.70;99.90;;;;;;5055951;28;20469;-65
2023/12/03 04:33:09;;;;;;;22.57;13.20;;;2.80;99.90;;;;;;5056172;28;20445;-65
2023/12/03 04:35:36;;;;;;;22.50;12.10;;;2.80;99.90;;;;;;5055932;28;20449;-65
2023/12/03 04:38:03;;;;;;;22.73;12.80;;;2.80;99.90;;;;;;5055357;28;20472;-65
2023/12/03 04:40:31;;;;;;;22.43;12.70;;;2.80;99.90;;;;;;5055811;28;20487;-65
2023/12/03 04:42:57;;;;;;;19.90;12.07;;;2.90;99.90;;;;;;5056043;28;20448;-65
2023/12/03 04:45:24;;;;;;;21.07;12.60;;;2.90;99.90;;;;;;5055821;28;20871;-65
2023/12/03 04:47:51;;;;;;;20.03;11.67;;;2.90;99.90;;;;;;5055696;28;20477;-65
2023/12/03 04:50:17;;;;;;;24.33;14.53;;;2.90;99.90;;;;;;5055977;28;20465;-65
2023/12/03 04:52:44;;;;;;;22.97;11.73;;;2.90;99.90;;;;;;5055682;28;20465;-65
2023/12/03 04:55:11;;;;;;;20.17;12.87;;;2.90;99.90;;;;;;5055314;28;20970;-65
2023/12/03 04:57:39;;;;;;;22.40;12.73;;;2.90;99.90;;;;;;5055782;28;20434;-65
2023/12/03 05:00:07;;;;;;;21.07;13.00;;;2.80;99.90;;;;;;5055124;28;20983;-65
2023/12/03 05:02:34;;;;;;;22.63;11.47;;;2.80;99.90;;;;;;5055460;28;20473;-65
2023/12/03 05:05:00;;;;;;;19.27;12.37;;;2.90;99.90;;;;;;5055586;28;20438;-65
2023/12/03 05:07:27;;;;;;;24.23;12.30;;;2.80;99.90;;;;;;5054975;28;20484;-65
2023/12/03 05:09:54;;;;;;;21.00;12.40;;;2.80;99.90;;;;;;5055301;28;20457;-65
2023/12/03 05:12:20;;;;;;;20.80;12.50;;;2.80;99.90;;;;;;5054947;28;20935;-65
2023/12/03 05:14:48;;;;;;;20.20;12.70;;;2.80;99.90;;;;;;5055233;28;20468;-66
2023/12/03 05:17:15;;;;;;;20.33;11.87;;;2.80;99.90;;;;;;5055168;28;20814;-65
2023/12/03 05:19:43;;;;;;;19.87;11.30;;;2.80;99.90;;;;;;5055126;28;20470;-65
2023/12/03 05:22:10;;;;;;;19.63;11.10;;;2.80;99.90;;;;;;5055154;28;20530;-65
2023/12/03 05:24:37;;;;;;;19.20;12.40;;;2.80;99.90;;;;;;5055097;28;20827;-65
2023/12/03 05:27:04;;;;;;;21.70;11.57;;;2.80;99.90;;;;;;5054982;28;20441;-65
2023/12/03 05:29:30;;;;;;;18.57;12.07;;;2.70;99.90;;;;;;5055136;28;20481;-65
2023/12/03 05:31:58;;;;;;;19.43;11.37;;;2.80;99.90;;;;;;5054696;28;20967;-65
2023/12/03 05:34:25;;;;;;;21.37;12.23;;;2.70;99.90;;;;;;5054781;28;20452;-64
2023/12/03 05:36:52;;;;;;;19.03;11.77;;;2.70;99.90;;;;;;5054958;28;20861;-64
2023/12/03 05:39:19;;;;;;;19.40;11.83;;;2.70;99.90;;;;;;5054753;28;20492;-64
2023/12/03 05:41:45;;;;;;;16.83;10.30;;;2.70;99.90;;;;;;5054732;28;20446;-65
2023/12/03 05:44:14;;;;;;;21.37;12.17;;;2.70;99.90;;;;;;5054424;28;20810;-65
2023/12/03 05:46:42;;;;;;;25.10;10.87;;;2.70;99.90;;;;;;5054670;28;20826;-65
2023/12/03 05:49:10;;;;;;;16.90;11.67;;;2.70;99.90;;;;;;5053820;28;20474;-64
2023/12/03 05:51:37;;;;;;;17.27;10.50;;;2.60;99.90;;;;;;5054920;28;20452;-64
2023/12/03 05:54:04;;;;;;;17.83;10.40;;;2.60;99.90;;;;;;5054975;28;20442;-64
2023/12/03 05:56:30;;;;;;;20.90;11.77;;;2.50;99.90;;;;;;5054845;28;20468;-64
2023/12/03 05:58:57;;;;;;;18.00;11.40;;;2.50;99.90;;;;;;5054739;28;20437;-64
2023/12/03 06:01:25;;;;;;;19.83;11.20;;;2.50;99.90;;;;;;5055075;28;20438;-64
2023/12/03 06:03:51;;;;;;;16.63;9.90;;;2.50;99.90;;;;;;5054925;28;20532;-64
2023/12/03 06:06:20;;;;;;;30.23;11.93;;;2.50;99.90;;;;;;5054129;28;20446;-64
2023/12/03 06:08:46;;;;;;;22.40;12.43;;;2.50;99.90;;;;;;5054403;28;20480;-64
2023/12/03 06:11:13;;;;;;;16.03;10.27;;;2.50;99.90;;;;;;5054306;28;20836;-64
2023/12/03 06:13:40;;;;;;;18.07;10.50;;;2.50;99.90;;;;;;5054226;28;20454;-65
2023/12/03 06:16:07;;;;;;;19.57;11.10;;;2.50;99.90;;;;;;5054438;28;20429;-64
2023/12/03 06:18:34;;;;;;;18.93;11.50;;;2.50;99.90;;;;;;5054465;28;20457;-64
2023/12/03 06:21:02;;;;;;;17.00;10.80;;;2.50;99.90;;;;;;5054228;28;20541;-64
2023/12/03 06:23:30;;;;;;;17.10;10.40;;;2.50;99.90;;;;;;5054204;28;20453;-64
2023/12/03 06:25:57;;;;;;;20.23;11.07;;;2.50;99.90;;;;;;5053930;28;20445;-64
2023/12/03 06:28:24;;;;;;;18.23;11.13;;;2.40;99.90;;;;;;5054450;28;20890;-65
2023/12/03 06:30:50;;;;;;;17.07;10.30;;;2.40;99.90;;;;;;5054306;28;20471;-65
2023/12/03 06:33:18;;;;;;;18.40;11.43;;;2.50;99.90;;;;;;5053946;28;21046;-65
2023/12/03 06:35:45;;;;;;;17.17;10.57;;;2.40;99.90;;;;;;5053886;28;20456;-65
2023/12/03 06:38:11;;;;;;;19.57;11.53;;;2.40;99.90;;;;;;5053979;28;20507;-64
2023/12/03 06:40:40;;;;;;;16.17;11.03;;;2.40;99.90;;;;;;5053857;28;20485;-64
2023/12/03 06:43:06;;;;;;;15.60;9.43;;;2.40;99.90;;;;;;5053756;28;20445;-65
2023/12/03 06:45:33;;;;;;;17.47;10.57;;;2.40;99.90;;;;;;5053728;28;20997;-65
2023/12/03 06:48:00;;;;;;;16.10;9.67;;;2.50;99.90;;;;;;5053493;28;20861;-65
2023/12/03 06:50:26;;;;;;;17.63;10.60;;;2.40;99.90;;;;;;5053714;28;20472;-64
2023/12/03 06:52:53;;;;;;;15.20;10.50;;;2.40;99.90;;;;;;5053446;28;20445;-64
2023/12/03 06:55:20;;;;;;;15.73;10.13;;;2.40;99.90;;;;;;5053151;28;20475;-65
2023/12/03 06:57:48;;;;;;;16.97;9.60;;;2.40;99.90;;;;;;5053752;28;20536;-64
2023/12/03 07:00:15;;;;;;;16.70;10.47;;;2.40;99.90;;;;;;5053475;28;20500;-64
2023/12/03 07:02:42;;;;;;;15.30;10.00;;;2.40;99.90;;;;;;5053415;28;20811;-64
2023/12/03 07:05:09;;;;;;;20.10;10.40;;;2.40;99.90;;;;;;5053581;28;20464;-64
2023/12/03 07:07:38;;;;;;;15.50;9.80;;;2.40;99.90;;;;;;5053666;28;20450;-65
2023/12/03 07:10:06;;;;;;;16.37;10.63;;;2.50;99.90;;;;;;5053037;28;21026;-64
2023/12/03 07:12:32;;;;;;;22.17;11.77;;;2.50;99.90;;;;;;5053764;28;20500;-64
2023/12/03 07:15:00;;;;;;;16.43;10.67;;;2.50;99.90;;;;;;5053531;28;20579;-64
2023/12/03 07:17:27;;;;;;;16.00;10.27;;;2.50;99.90;;;;;;5053853;28;20466;-64
2023/12/03 07:19:54;;;;;;;17.70;11.07;;;2.50;99.90;;;;;;5054248;28;20481;-64
2023/12/03 07:22:20;;;;;;;17.50;10.30;;;2.50;99.90;;;;;;5053976;28;20481;-64
2023/12/03 07:24:47;;;;;;;19.97;11.70;;;2.50;99.90;;;;;;5053845;28;20446;-64
2023/12/03 07:27:14;;;;;;;21.73;11.00;;;2.50;99.90;;;;;;5053317;28;20446;-65
2023/12/03 07:29:40;;;;;;;24.07;11.70;;;2.50;99.90;;;;;;5053605;28;20492;-64
2023/12/03 07:32:08;;;;;;;30.03;14.20;;;2.50;99.90;;;;;;5053793;28;20442;-65
2023/12/03 07:34:35;;;;;;;31.50;15.33;;;2.50;99.80;;;;;;5053352;28;20437;-65
2023/12/03 07:37:02;;;;;;;28.90;14.23;;;2.50;99.70;;;;;;5053046;28;20852;-65
2023/12/03 07:39:29;;;;;;;24.13;11.80;;;2.50;99.80;;;;;;5053161;28;20454;-65
2023/12/03 07:41:56;;;;;;;21.60;11.50;;;2.50;99.80;;;;;;5052759;28;20525;-64
2023/12/03 07:44:22;;;;;;;17.03;12.20;;;2.50;99.80;;;;;;5053329;28;20445;-65
2023/12/03 07:46:49;;;;;;;17.50;12.00;;;2.50;99.80;;;;;;5053449;28;20441;-65
2023/12/03 07:49:17;;;;;;;17.73;10.63;;;2.40;99.70;;;;;;5052564;28;20835;-65
2023/12/03 07:51:46;;;;;;;16.93;10.20;;;2.50;99.90;;;;;;5052948;28;20935;-65
2023/12/03 07:54:13;;;;;;;18.80;9.77;;;2.50;99.90;;;;;;5052940;28;20974;-65
2023/12/03 07:56:41;;;;;;;17.10;9.67;;;2.60;99.80;;;;;;5052732;28;20936;-65
2023/12/03 07:59:08;;;;;;;19.03;10.60;;;2.60;99.70;;;;;;5052699;28;20819;-65
2023/12/03 08:01:35;;;;;;;17.50;9.77;;;2.60;99.60;;;;;;5053168;28;20449;-65
2023/12/03 08:04:03;;;;;;;20.00;10.57;;;2.70;99.80;;;;;;5053067;28;20932;-65
2023/12/03 08:06:32;;;;;;;19.47;10.17;;;2.70;99.80;;;;;;5052817;28;21038;-66
2023/12/03 08:08:59;;;;;;;20.13;10.67;;;2.80;99.70;;;;;;5052980;28;20492;-65
2023/12/03 08:11:26;;;;;;;19.53;10.70;;;2.80;99.60;;;;;;5053151;28;20437;-65
2023/12/03 08:13:54;;;;;;;19.37;11.10;;;2.90;99.40;;;;;;5055588;28;20453;-65
2023/12/03 08:16:20;;;;;;;19.83;10.20;;;2.90;99.20;;;;;;5056256;28;20437;-65
2023/12/03 08:18:48;;;;;;;19.07;10.93;;;3.00;99.10;;;;;;5057214;28;20814;-65
2023/12/03 08:21:15;;;;;;;20.53;11.30;;;3.00;98.90;;;;;;5057097;28;20552;-65
2023/12/03 08:23:43;;;;;;;19.57;11.67;;;3.00;98.80;;;;;;5057199;28;20449;-65
2023/12/03 08:26:10;;;;;;;23.17;11.60;;;3.00;98.70;;;;;;5056519;28;20464;-65
2023/12/03 08:28:37;;;;;;;14.47;10.20;;;3.10;98.60;;;;;;5056030;28;20886;-65
2023/12/03 08:31:04;;;;;;;22.53;11.37;;;3.10;98.40;;;;;;5056321;28;20487;-65
2023/12/03 08:33:31;;;;;;;17.10;10.33;;;3.10;98.10;;;;;;5056467;28;20804;-65
2023/12/03 08:35:58;;;;;;;17.67;10.37;;;3.00;98.00;;;;;;5056937;28;20449;-65
2023/12/03 08:38:24;;;;;;;13.93;10.00;;;3.10;97.80;;;;;;5057865;28;20441;-65
2023/12/03 08:40:53;;;;;;;15.60;10.03;;;3.00;97.60;;;;;;5057521;28;20489;-65
2023/12/03 08:43:19;;;;;;;18.03;9.37;;;3.00;97.60;;;;;;5057583;28;20446;-65
2023/12/03 08:45:46;;;;;;;17.83;11.30;;;3.00;97.60;;;;;;5058137;28;20446;-65
2023/12/03 08:48:14;;;;;;;17.40;11.20;;;3.00;97.70;;;;;;5059481;28;20450;-65
2023/12/03 08:50:40;;;;;;;14.63;10.50;;;3.10;97.70;;;;;;5056254;28;20485;-65
2023/12/03 08:53:07;;;;;;;16.00;10.70;;;3.10;97.60;;;;;;5056569;28;20442;-65
2023/12/03 08:55:34;;;;;;;20.83;11.67;;;3.00;97.30;;;;;;5056459;28;20795;-65
2023/12/03 08:58:03;;;;;;;18.90;11.90;;;3.00;97.40;;;;;;5056272;28;20446;-65
2023/12/03 09:00:29;;;;;;;17.53;11.00;;;3.10;97.60;;;;;;5055613;28;20489;-64
2023/12/03 09:02:56;;;;;;;24.47;12.20;;;3.10;97.50;;;;;;5056021;28;20947;-65
2023/12/03 09:05:23;;;;;;;21.30;13.07;;;3.10;97.50;;;;;;5055910;28;20931;-65
2023/12/03 09:07:49;;;;;;;20.07;12.13;;;3.10;97.50;;;;;;5055772;28;20442;-65
2023/12/03 09:10:16;;;;;;;25.27;13.57;;;3.10;97.50;;;;;;5055514;28;20488;-65
2023/12/03 09:12:43;;;;;;;20.40;13.73;;;3.20;97.60;;;;;;5055609;28;20503;-65
2023/12/03 09:15:12;;;;;;;20.43;12.20;;;3.10;97.40;;;;;;5055280;28;20492;-65
2023/12/03 09:17:39;;;;;;;16.80;11.70;;;3.20;97.30;;;;;;5055400;28;20441;-65
2023/12/03 09:20:08;;;;;;;18.20;11.50;;;3.20;97.40;;;;;;5055309;28;20508;-65
2023/12/03 09:22:35;;;;;;;21.77;11.13;;;3.20;97.10;;;;;;5054870;28;20446;-64
2023/12/03 09:25:02;;;;;;;18.30;11.33;;;3.20;97.20;;;;;;5055386;28;20452;-65
2023/12/03 09:27:29;;;;;;;17.00;11.30;;;3.30;97.20;;;;;;5055172;28;20473;-65
2023/12/03 09:29:56;;;;;;;17.43;11.50;;;3.30;97.10;;;;;;5055167;28;20489;-65
2023/12/03 09:32:23;;;;;;;33.83;11.33;;;3.40;96.80;;;;;;5055349;28;20438;-64
2023/12/03 09:34:49;;;;;;;17.37;11.20;;;3.50;97.00;;;;;;5055030;28;20472;-64
2023/12/03 09:37:16;;;;;;;16.17;11.50;;;3.60;97.30;;;;;;5054778;28;20449;-64
2023/12/03 09:39:43;;;;;;;18.37;11.50;;;3.60;97.00;;;;;;5055028;28;20480;-64
2023/12/03 09:42:13;;;;;;;14.33;10.17;;;3.70;96.60;;;;;;5054826;28;20458;-64
2023/12/03 09:44:46;;;;;;;20.47;11.17;;;3.80;96.20;;;;;;5054970;28;20442;-64
2023/12/03 09:47:15;;;;;;;18.70;11.40;;;3.80;96.00;;;;;;5054849;28;20426;-64
2023/12/03 09:49:46;;;;;;;18.30;11.57;;;3.80;95.80;;;;;;5054742;28;20881;-64
2023/12/03 09:52:18;;;;;;;20.77;11.87;;;3.90;95.90;;;;;;5054923;28;20452;-65
2023/12/03 09:54:46;;;;;;;18.17;12.00;;;3.90;95.70;;;;;;5054724;28;20422;-65
2023/12/03 09:57:15;;;;;;;21.23;12.30;;;4.00;95.70;;;;;;5054206;28;20448;-67
2023/12/03 09:59:46;;;;;;;19.73;10.80;;;4.00;95.40;;;;;;5054455;28;20555;-65
2023/12/03 10:02:14;;;;;;;19.60;10.87;;;4.10;95.30;;;;;;5054692;28;20457;-64
2023/12/03 10:04:43;;;;;;;18.13;11.07;;;4.10;95.20;;;;;;5054291;28;20987;-65
2023/12/03 10:07:10;;;;;;;19.50;11.10;;;4.20;95.40;;;;;;5054527;28;20448;-65
2023/12/03 10:09:40;;;;;;;20.30;12.23;;;4.30;95.50;;;;;;5054145;28;20509;-65
2023/12/03 10:12:10;;;;;;;18.17;10.33;;;4.30;95.50;;;;;;5054210;28;20477;-65
2023/12/03 10:14:37;;;;;;;17.93;12.40;;;4.40;94.80;;;;;;5053881;28;20947;-65
2023/12/03 10:17:04;;;;;;;20.80;12.80;;;4.30;94.50;;;;;;5054122;28;20794;-64
2023/12/03 10:19:30;;;;;;;19.03;12.17;;;4.40;94.40;;;;;;5054092;28;20476;-65
2023/12/03 10:22:00;;;;;;;18.43;10.70;;;4.40;94.30;;;;;;5054454;28;20524;-65
2023/12/03 10:24:26;;;;;;;19.80;12.27;;;4.40;94.20;;;;;;5054232;28;20473;-65
2023/12/03 10:26:55;;;;;;;23.27;12.53;;;4.40;94.00;;;;;;5053777;28;20946;-65
2023/12/03 10:29:23;;;;;;;19.40;12.40;;;4.40;93.80;;;;;;5053859;28;20564;-65
2023/12/03 10:31:50;;;;;;;19.10;12.73;;;4.50;93.70;;;;;;5053938;28;20449;-65
2023/12/03 10:34:17;;;;;;;23.03;12.63;;;4.50;93.50;;;;;;5053814;28;20438;-64
2023/12/03 10:36:44;;;;;;;21.70;13.70;;;4.60;93.30;;;;;;5053166;28;20449;-64
2023/12/03 10:39:17;;;;;;;24.47;14.63;;;4.60;93.20;;;;;;5053468;28;20955;-64
2023/12/03 10:41:46;;;;;;;20.00;12.10;;;4.60;92.80;;;;;;5053734;28;20524;-64
2023/12/03 10:44:17;;;;;;;20.10;12.40;;;4.60;92.60;;;;;;5053658;28;20453;-64
2023/12/03 10:46:44;;;;;;;18.80;11.57;;;4.70;92.60;;;;;;5053685;28;20430;-64
2023/12/03 10:49:12;;;;;;;20.17;11.23;;;4.70;92.50;;;;;;5053438;28;20450;-64
2023/12/03 10:51:42;;;;;;;18.77;10.97;;;4.80;92.60;;;;;;5053285;28;20476;-64
2023/12/03 10:54:09;;;;;;;17.90;10.83;;;4.90;92.30;;;;;;5053475;28;20525;-64
2023/12/03 10:56:37;;;;;;;24.80;11.67;;;5.00;92.10;;;;;;5053262;28;20446;-64
2023/12/03 10:59:09;;;;;;;17.80;10.87;;;5.20;91.90;;;;;;5053946;28;20536;-64
2023/12/03 11:01:39;;;;;;;19.00;12.90;;;5.30;91.70;;;;;;5053544;28;20426;-64
2023/12/03 11:04:15;;;;;;;17.20;11.37;;;5.50;91.30;;;;;;5053494;28;20422;-64
2023/12/03 11:06:44;;;;;;;19.73;11.00;;;5.60;90.90;;;;;;5053436;28;20464;-64
2023/12/03 11:09:11;;;;;;;16.80;10.83;;;5.70;90.70;;;;;;5053226;28;20825;-64
2023/12/03 11:11:40;;;;;;;13.80;9.57;;;5.70;90.00;;;;;;5053018;28;20449;-64
2023/12/03 11:14:08;;;;;;;15.73;10.03;;;5.80;90.00;;;;;;5053231;28;20461;-65
2023/12/03 11:16:44;;;;;;;17.87;9.73;;;6.00;90.00;;;;;;5053078;28;20476;-64
2023/12/03 11:19:17;;;;;;;16.77;10.17;;;6.10;89.00;;;;;;5053254;28;20425;-64
2023/12/03 11:21:53;;;;;;;15.97;9.53;;;6.30;89.30;;;;;;5053203;28;20429;-64
2023/12/03 11:24:51;;;;;;;13.50;8.93;;;6.50;86.80;;;;;;5053242;28;20456;-64
2023/12/03 11:27:24;;;;;;;15.70;10.17;;;6.90;86.50;;;;;;5053929;28;20433;-64
2023/12/03 11:29:51;;;;;;;15.33;10.03;;;7.20;84.30;;;;;;5052836;28;21009;-64
2023/12/03 11:32:19;;;;;;;15.37;9.63;;;7.50;82.80;;;;;;5053491;28;20433;-64
2023/12/03 11:34:56;;;;;;;13.63;8.50;;;7.70;81.20;;;;;;5053111;28;20452;-64
2023/12/03 11:37:25;;;;;;;13.07;8.90;;;8.00;79.70;;;;;;5052939;28;20425;-65
2023/12/03 11:39:51;;;;;;;16.53;10.20;;;8.10;78.00;;;;;;5053037;28;20469;-64
2023/12/03 11:42:24;;;;;;;13.37;8.83;;;8.10;77.60;;;;;;5053947;28;20480;-64
2023/12/03 11:44:50;;;;;;;12.50;9.93;;;8.10;77.60;;;;;;5052613;28;20891;-64
2023/12/03 11:47:19;;;;;;;14.00;9.13;;;7.90;77.20;;;;;;5053311;28;20437;-64
2023/12/03 11:49:46;;;;;;;13.43;9.17;;;7.80;76.80;;;;;;5056687;28;20485;-64
2023/12/03 11:52:12;;;;;;;12.13;8.17;;;7.70;76.70;;;;;;5056819;28;20441;-64
2023/12/03 11:54:50;;;;;;;12.77;9.80;;;7.70;77.50;;;;;;5057043;28;20441;-64
2023/12/03 11:57:18;;;;;;;11.97;7.60;;;8.00;78.40;;;;;;5056977;28;20437;-64
2023/12/03 11:59:45;;;;;;;12.57;7.90;;;8.40;77.20;;;;;;5058766;28;20480;-64
2023/12/03 12:02:13;;;;;;;15.63;8.13;;;8.70;73.60;;;;;;5059107;28;20449;-65
2023/12/03 12:04:40;;;;;;;10.83;8.00;;;9.10;72.70;;;;;;5057922;28;20982;-65
2023/12/03 12:07:14;;;;;;;12.13;8.30;;;9.60;71.20;;;;;;5057825;28;20444;-65
2023/12/03 12:09:41;;;;;;;10.03;7.73;;;9.90;67.30;;;;;;5056847;28;20495;-65
2023/12/03 12:12:08;;;;;;;11.13;7.87;;;10.00;64.80;;;;;;5057064;28;20444;-65
2023/12/03 12:14:36;;;;;;;10.10;7.27;;;10.10;63.40;;;;;;5056535;28;20449;-65
2023/12/03 12:17:03;;;;;;;9.17;7.20;;;9.90;63.50;;;;;;5056201;28;20811;-65
2023/12/03 12:19:30;;;;;;;9.70;7.80;;;9.40;63.90;;;;;;5056604;28;20881;-65
2023/12/03 12:21:58;;;;;;;12.30;8.90;;;9.00;65.30;;;;;;5056616;28;20464;-65
2023/12/03 12:24:25;;;;;;;9.27;7.43;;;8.90;67.40;;;;;;5056415;28;20452;-65
2023/12/03 12:26:52;;;;;;;12.40;8.10;;;9.10;68.30;;;;;;5056366;28;20449;-65
2023/12/03 12:29:20;;;;;;;11.60;8.50;;;9.30;65.60;;;;;;5056761;28;20469;-65
2023/12/03 12:31:48;;;;;;;9.77;7.53;;;9.30;65.20;;;;;;5056013;28;20883;-65
2023/12/03 12:34:15;;;;;;;11.80;8.87;;;9.40;65.80;;;;;;5056043;28;20967;-65
2023/12/03 12:36:44;;;;;;;10.97;8.07;;;9.60;65.00;;;;;;5055867;28;20445;-65
2023/12/03 12:39:27;;;;;;;11.80;8.60;;;9.40;63.10;;;;;;5055690;28;20457;-65